Time;durP1;ratioP1;P1;durP2;ratioP2;P2;SDS_P1;SDS_P2;PMS_P1;PMS_P2;Temp;Humidity;BMP_temperature;BMP_pressure;BME280_temperature;BME280_humidity;BME280_pressure;Samples;Min_cycle;Max_cycle;Signal;HPM_P1;HPM_P2
2023/07/25 00:02:16;;;;;;;4.65;2.97;;;25.90;64.60;;;25.20;47.24;99078.84;10274025;28;99133;-90
2023/07/25 00:07:19;;;;;;;5.43;3.05;;;25.90;64.60;;;25.19;47.59;99088.09;10254136;28;96652;-90
2023/07/25 00:12:23;;;;;;;5.85;3.95;;;25.90;64.90;;;25.15;48.00;99070.75;10275290;28;96468;-90
2023/07/25 00:17:27;;;;;;;4.50;2.88;;;25.90;65.20;;;25.10;47.97;99049.88;10274905;28;96727;-91
2023/07/25 00:22:31;;;;;;;4.70;2.90;;;25.80;65.30;;;25.07;48.31;99036.88;10274311;28;97018;-90
2023/07/25 00:27:34;;;;;;;4.70;2.95;;;25.80;65.50;;;24.97;48.38;99026.91;10274325;28;96690;-91
2023/07/25 00:32:39;;;;;;;5.60;3.38;;;25.80;65.70;;;24.82;49.03;99030.59;10273688;28;96695;-91
2023/07/25 00:37:42;;;;;;;5.63;3.30;;;25.60;65.90;;;24.70;48.79;99034.81;10273677;28;97272;-90
2023/07/25 00:42:46;;;;;;;6.07;3.65;;;25.50;66.00;;;24.74;47.60;99039.41;10276590;28;96511;-89
2023/07/25 00:47:50;;;;;;;5.90;3.58;;;25.50;65.20;;;24.81;47.94;99050.72;10288529;28;97517;-91
2023/07/25 00:52:57;;;;;;;5.80;3.65;;;25.60;65.00;;;24.86;48.48;99068.06;10272740;28;96778;-89
2023/07/25 00:58:00;;;;;;;7.70;3.45;;;25.60;65.50;;;24.82;48.76;99067.84;10287936;28;96688;-90
2023/07/25 01:03:05;;;;;;;4.78;3.00;;;25.60;65.90;;;24.78;49.03;99083.13;10282796;28;96810;-91
2023/07/25 01:08:08;;;;;;;5.13;3.60;;;25.50;66.10;;;24.72;49.44;99106.00;10272303;28;96913;-90
2023/07/25 01:13:12;;;;;;;7.65;3.78;;;25.50;66.30;;;24.67;50.05;99117.72;10273416;28;96586;-90
2023/07/25 01:18:16;;;;;;;8.02;3.90;;;25.40;67.00;;;24.63;51.62;99134.88;10286079;28;97087;-88
2023/07/25 01:23:22;;;;;;;8.85;4.15;;;25.40;68.50;;;24.56;53.58;99154.22;10266898;28;97223;-92
2023/07/25 01:28:25;;;;;;;6.53;4.72;;;25.40;69.90;;;24.39;55.03;99157.31;10261238;28;96875;-90
2023/07/25 01:33:29;;;;;;;5.57;4.47;;;25.20;71.40;;;24.17;57.15;99144.19;10249752;28;97347;-90
2023/07/25 01:38:32;;;;;;;8.38;4.80;;;25.00;72.80;;;23.89;59.21;99136.78;10257341;28;96475;-90
2023/07/25 01:43:36;;;;;;;7.10;4.80;;;24.80;74.60;;;23.65;60.93;99137.44;10274249;28;97424;-91
2023/07/25 01:48:39;;;;;;;7.97;4.35;;;24.60;76.00;;;23.45;62.12;99132.91;10285592;28;96577;-91
2023/07/25 01:53:43;;;;;;;9.98;4.35;;;24.30;76.80;;;23.28;63.47;99104.53;10288123;28;96633;-92
2023/07/25 01:58:47;;;;;;;7.60;4.72;;;24.10;77.70;;;23.09;64.30;99082.63;10288493;28;98833;-90
2023/07/25 02:03:50;;;;;;;7.82;4.53;;;23.90;78.60;;;22.98;66.41;99065.63;10289183;28;96509;-92
2023/07/25 02:08:54;;;;;;;8.00;4.30;;;23.80;79.60;;;22.82;67.48;99039.63;10276797;28;98318;-90
2023/07/25 02:13:57;;;;;;;9.32;4.38;;;23.60;80.60;;;22.60;68.24;99011.00;10296176;28;96587;-91
2023/07/25 02:19:01;;;;;;;5.38;4.13;;;23.40;81.40;;;22.47;68.92;98991.81;10286443;28;97442;-91
2023/07/25 02:24:05;;;;;;;8.68;4.53;;;23.30;82.20;;;22.32;69.09;98974.53;10296150;28;97292;-90
2023/07/25 02:29:08;;;;;;;7.78;4.68;;;23.10;82.50;;;22.27;69.40;99014.34;10279479;28;98458;-90
2023/07/25 02:34:15;;;;;;;8.77;4.88;;;23.10;83.00;;;22.15;70.38;99039.78;10296361;28;98402;-91
2023/07/25 02:39:18;;;;;;;5.78;3.97;;;23.00;83.60;;;22.15;70.38;98977.53;10277176;28;96563;-90
2023/07/25 02:44:22;;;;;;;7.05;4.28;;;23.00;83.60;;;22.17;70.62;98782.47;10297549;28;96435;-92
2023/07/25 02:49:26;;;;;;;7.50;3.92;;;23.00;83.50;;;22.26;70.12;98850.34;10275667;28;98431;-91
2023/07/25 02:54:29;;;;;;;6.72;3.58;;;23.10;83.30;;;22.31;69.36;98859.25;10270693;28;98423;-90
2023/07/25 02:59:33;;;;;;;5.38;3.70;;;23.20;82.80;;;22.34;68.93;98864.09;10278633;28;98417;-90
2023/07/25 03:04:37;;;;;;;6.78;3.40;;;23.20;82.80;;;22.35;68.63;98925.25;10276519;28;96690;-91
2023/07/25 03:09:41;;;;;;;5.75;3.47;;;23.20;82.70;;;22.30;68.12;98932.59;10275944;28;97584;-91
2023/07/25 03:14:44;;;;;;;5.32;3.22;;;23.20;82.40;;;22.29;67.64;98947.22;10296061;28;96606;-91
2023/07/25 03:19:50;;;;;;;5.75;2.88;;;23.20;82.00;;;22.26;67.15;98959.41;10273220;28;99051;-91
2023/07/25 03:24:53;;;;;;;6.28;3.20;;;23.10;81.70;;;22.25;66.95;98959.66;10278134;28;96635;-92
2023/07/25 03:29:57;;;;;;;7.88;2.88;;;23.10;81.60;;;22.27;66.49;98968.31;10276713;28;96616;-92
2023/07/25 03:35:01;;;;;;;6.50;2.83;;;23.10;81.10;;;22.30;65.45;98989.41;10277015;28;97598;-93
2023/07/25 03:40:05;;;;;;;6.32;2.70;;;23.10;80.60;;;22.36;64.89;98980.19;10276660;28;96588;-91
2023/07/25 03:45:09;;;;;;;6.45;2.35;;;23.20;80.40;;;22.43;64.54;98950.94;10292962;28;98026;-91
2023/07/25 03:50:13;;;;;;;4.32;2.38;;;23.30;80.20;;;22.52;64.60;98945.78;10271466;28;96545;-91
2023/07/25 03:55:17;;;;;;;4.10;2.15;;;23.40;80.10;;;22.53;64.55;98950.91;10301835;28;96641;-91
2023/07/25 04:00:20;;;;;;;5.97;2.80;;;23.40;80.60;;;22.55;64.80;98967.72;10275718;28;96512;-91
2023/07/25 04:05:24;;;;;;;5.25;2.40;;;23.40;80.20;;;22.54;64.75;98971.47;10273720;28;96813;-89
2023/07/25 04:10:28;;;;;;;5.78;2.67;;;23.40;80.50;;;22.53;65.16;98950.09;10289399;28;96622;-90
2023/07/25 04:15:31;;;;;;;5.93;2.85;;;23.30;80.70;;;22.55;65.72;98973.13;10275085;28;96621;-89
2023/07/25 04:20:35;;;;;;;4.72;2.50;;;23.40;81.00;;;22.58;66.37;98960.91;10291313;28;96782;-89
2023/07/25 04:25:39;;;;;;;9.88;3.70;;;23.40;81.40;;;22.60;66.74;98956.84;10274037;28;96453;-88
2023/07/25 04:30:43;;;;;;;6.97;3.05;;;23.50;81.50;;;22.60;67.08;98956.03;10269126;28;99324;-87
2023/07/25 04:35:47;;;;;;;8.40;3.05;;;23.50;82.30;;;22.51;68.37;98955.81;10271798;28;96727;-88
2023/07/25 04:40:51;;;;;;;6.38;2.95;;;23.40;82.80;;;22.52;68.57;98956.63;10273932;28;98318;-87
2023/07/25 04:45:54;;;;;;;6.75;2.88;;;23.30;83.10;;;22.53;68.68;98948.22;10263937;28;96776;-88
2023/07/25 04:50:58;;;;;;;9.32;3.17;;;23.40;83.80;;;22.51;68.78;98950.38;10259615;28;97544;-87
2023/07/25 04:56:01;;;;;;;6.28;3.10;;;23.40;83.80;;;22.42;69.41;98943.91;10291943;28;96673;-87
2023/07/25 05:01:05;;;;;;;7.50;3.42;;;23.30;84.00;;;22.41;69.54;98926.88;10290487;28;96608;-87
2023/07/25 05:06:11;;;;;;;9.57;4.03;;;23.30;84.20;;;22.53;69.21;98948.22;10271408;28;96683;-85
2023/07/25 05:11:15;;;;;;;6.70;3.40;;;23.30;83.90;;;22.75;68.48;98947.06;10289220;28;97469;-85
2023/07/25 05:16:19;;;;;;;5.53;3.03;;;23.60;83.70;;;23.00;67.81;98906.31;10285893;28;97265;-86
2023/07/25 05:21:22;;;;;;;7.70;3.10;;;23.80;82.60;;;23.19;65.91;98928.94;10273192;28;96533;-86
2023/07/25 05:26:26;;;;;;;10.98;3.17;;;24.00;81.50;;;23.29;65.73;98935.41;10264875;28;96760;-85
2023/07/25 05:31:30;;;;;;;7.07;2.92;;;24.20;82.30;;;23.37;67.23;98938.28;10283722;28;99038;-85
2023/07/25 05:36:34;;;;;;;6.53;3.20;;;24.20;82.70;;;23.51;66.29;98957.47;10288964;28;96708;-85
2023/07/25 05:41:39;;;;;;;6.68;3.55;;;24.40;82.50;;;23.68;66.57;98947.03;10269963;28;97039;-85
2023/07/25 05:46:42;;;;;;;6.07;3.20;;;24.50;82.10;;;23.87;65.30;98932.75;10287382;28;96523;-85
2023/07/25 05:51:46;;;;;;;5.97;3.17;;;24.80;81.20;;;24.11;64.18;98930.91;10269729;28;98076;-85
2023/07/25 05:56:50;;;;;;;5.47;2.83;;;25.00;81.10;;;24.29;62.47;98938.31;10294074;28;97809;-85
2023/07/25 06:01:53;;;;;;;4.90;3.08;;;25.20;79.80;;;24.43;61.27;98940.38;10277147;28;98948;-85
2023/07/25 06:06:57;;;;;;;6.00;3.22;;;25.30;79.10;;;24.60;59.88;98940.72;10297470;28;96660;-85
2023/07/25 06:12:01;;;;;;;4.65;2.78;;;25.40;78.00;;;24.81;58.60;98917.59;10294570;28;96558;-85
2023/07/25 06:17:05;;;;;;;4.53;2.70;;;25.70;77.10;;;25.04;58.10;98917.84;10296273;28;96646;-86
2023/07/25 06:22:09;;;;;;;3.72;2.83;;;25.90;76.50;;;25.20;55.71;98900.22;10294125;28;96630;-86
2023/07/25 06:27:13;;;;;;;3.70;2.35;;;26.10;74.70;;;25.36;55.18;98887.19;10268017;28;96537;-86
2023/07/25 06:32:16;;;;;;;3.47;2.50;;;26.30;74.20;;;25.49;53.69;98897.34;10279774;28;96664;-86
2023/07/25 06:37:20;;;;;;;3.85;2.47;;;26.40;73.10;;;25.66;53.63;98874.19;10295072;28;97670;-86
2023/07/25 06:42:23;;;;;;;3.25;2.40;;;26.50;72.60;;;25.80;52.64;98869.63;10295099;28;96668;-86
2023/07/25 06:47:27;;;;;;;4.15;2.67;;;26.70;72.30;;;26.00;53.59;98869.22;10292810;28;96876;-85
2023/07/25 06:52:31;;;;;;;5.00;2.88;;;26.90;72.60;;;26.20;52.90;98869.94;10287741;28;96570;-86
2023/07/25 06:57:35;;;;;;;2.83;2.08;;;27.10;71.70;;;26.34;52.02;98851.69;10296845;28;97879;-85
2023/07/25 07:02:38;;;;;;;3.83;2.50;;;27.20;71.20;;;26.49;51.58;98842.41;10294831;28;97683;-86
2023/07/25 07:07:43;;;;;;;4.57;2.70;;;27.40;70.60;;;26.57;50.81;98839.78;10293468;28;96740;-85
2023/07/25 07:12:48;;;;;;;4.65;2.50;;;27.50;70.10;;;26.71;50.17;98825.31;10293680;28;96640;-86
2023/07/25 07:17:52;;;;;;;4.35;2.90;;;27.60;69.20;;;26.84;50.97;98817.09;10292420;28;97508;-85
2023/07/25 07:22:56;;;;;;;5.68;2.55;;;27.80;70.00;;;26.99;51.06;98798.75;10283078;28;96698;-85
2023/07/25 07:28:00;;;;;;;5.32;3.15;;;27.90;70.00;;;27.10;51.07;98794.69;10283079;28;96949;-85
2023/07/25 07:33:04;;;;;;;5.75;3.20;;;28.10;69.80;;;27.23;50.14;98799.28;10275910;28;96449;-86
2023/07/25 07:38:07;;;;;;;5.22;3.28;;;28.20;69.50;;;27.31;49.47;98778.63;10276084;28;96571;-86
2023/07/25 07:43:11;;;;;;;17.25;4.22;;;28.30;69.10;;;27.39;49.58;98767.75;10276578;28;96416;-86
2023/07/25 07:48:14;;;;;;;13.68;3.50;;;28.30;69.00;;;27.34;49.89;98765.16;10288537;28;98844;-85
2023/07/25 07:53:18;;;;;;;7.25;3.30;;;28.30;68.90;;;27.32;49.83;98761.94;10261447;28;96671;-86
2023/07/25 07:58:21;;;;;;;4.65;3.03;;;28.30;68.60;;;27.20;50.06;98786.25;10288795;28;96531;-85
2023/07/25 08:03:25;;;;;;;4.85;2.67;;;28.20;69.10;;;26.99;50.63;98790.56;10271924;28;96821;-85
2023/07/25 08:08:28;;;;;;;5.30;3.00;;;27.90;69.60;;;26.80;50.93;98796.19;10256153;28;96652;-86
2023/07/25 08:13:32;;;;;;;5.85;3.35;;;27.80;69.80;;;26.53;51.92;98783.50;10272060;28;96626;-85
2023/07/25 08:18:35;;;;;;;7.95;3.55;;;27.50;70.30;;;26.33;52.13;98781.97;10276531;28;97819;-86
2023/07/25 08:23:39;;;;;;;6.85;3.00;;;27.30;70.70;;;26.13;52.88;98777.78;10285593;28;96630;-86
2023/07/25 08:28:42;;;;;;;5.47;3.08;;;27.10;71.40;;;25.95;54.00;98770.53;10292358;28;96541;-86
2023/07/25 08:33:46;;;;;;;7.15;2.80;;;26.90;72.10;;;25.78;55.29;98765.69;10290806;28;96907;-86
2023/07/25 08:38:49;;;;;;;6.55;2.92;;;26.70;73.60;;;25.66;56.87;98757.22;10271746;28;96571;-85
2023/07/25 08:43:58;;;;;;;6.72;3.10;;;26.60;74.70;;;25.51;58.13;98785.50;10290883;28;96571;-86
2023/07/25 08:49:06;;;;;;;4.95;3.13;;;26.50;75.10;;;25.33;59.40;98771.69;10272129;28;96579;-87
2023/07/25 08:54:30;;;;;;;6.32;3.55;;;26.20;77.60;;;24.98;63.57;98804.88;10272868;28;96545;-87
2023/07/25 08:59:34;;;;;;;8.18;3.45;;;26.00;80.40;;;24.69;66.01;98805.84;10274262;28;96611;-86
2023/07/25 09:04:39;;;;;;;7.70;3.22;;;25.60;82.10;;;24.39;69.29;98842.38;10273459;28;97107;-86
2023/07/25 09:09:43;;;;;;;4.63;3.35;;;25.30;83.70;;;24.02;71.76;98909.00;10248847;28;96587;-86
2023/07/25 09:14:46;;;;;;;8.45;3.80;;;24.90;85.70;;;23.41;76.88;98949.41;10247132;28;96515;-84
2023/07/25 09:19:50;;;;;;;6.68;3.70;;;24.30;89.20;;;22.82;80.10;98961.09;10224064;28;98381;-85
2023/07/25 09:24:54;;;;;;;7.32;3.58;;;23.70;90.70;;;22.17;86.53;99117.97;10243843;28;99596;-87
2023/07/25 09:29:58;;;;;;;6.90;4.55;;;23.10;92.40;;;21.55;91.08;99116.22;10245121;28;97480;-83
2023/07/25 09:35:06;;;;;;;12.00;5.50;;;22.50;94.10;;;20.77;96.05;99146.59;10241065;28;96510;-81
2023/07/25 09:40:11;;;;;;;12.23;5.93;;;21.80;96.90;;;20.19;100.00;99066.53;10233410;28;96538;-83
2023/07/25 09:45:14;;;;;;;14.30;6.45;;;21.10;99.90;;;19.82;100.00;99094.25;10262235;28;97272;-84
2023/07/25 09:50:19;;;;;;;8.20;5.25;;;20.70;99.90;;;19.64;100.00;99067.66;10288355;28;96596;-82
2023/07/25 09:55:23;;;;;;;7.78;4.90;;;20.40;99.90;;;19.52;100.00;99017.41;10223828;28;96523;-83
2023/07/25 10:00:27;;;;;;;6.13;4.53;;;20.30;99.90;;;19.53;100.00;98992.09;10229107;28;96924;-83
2023/07/25 10:05:31;;;;;;;6.57;4.65;;;20.30;99.90;;;19.59;100.00;98978.69;10240193;28;97097;-82
2023/07/25 10:10:34;;;;;;;6.68;4.65;;;20.30;99.90;;;19.68;100.00;99006.81;10238796;28;96751;-83
2023/07/25 10:15:40;;;;;;;5.68;3.95;;;20.40;99.90;;;19.70;100.00;98999.28;10230614;28;96587;-82
2023/07/25 10:20:43;;;;;;;7.97;3.95;;;20.50;99.90;;;19.69;100.00;98966.13;10247117;28;96558;-83
2023/07/25 10:25:47;;;;;;;8.45;5.07;;;20.50;99.90;;;19.77;100.00;98999.88;10245988;28;96528;-83
2023/07/25 10:30:52;;;;;;;6.93;5.00;;;20.50;99.90;;;19.81;100.00;99038.72;10254527;28;97823;-83
2023/07/25 10:35:57;;;;;;;4.90;4.10;;;20.60;99.90;;;19.80;100.00;99018.25;10249635;28;98020;-84
2023/07/25 10:41:10;;;;;;;4.47;3.47;;;20.60;99.90;;;19.77;100.00;98981.00;10251189;28;97420;-84
2023/07/25 10:46:19;;;;;;;5.28;4.05;;;20.50;99.90;;;19.74;100.00;98951.88;10248978;28;97707;-84
2023/07/25 10:51:23;;;;;;;5.10;3.97;;;20.50;99.90;;;19.78;100.00;98967.25;10240864;28;98474;-83
2023/07/25 10:56:27;;;;;;;6.47;4.82;;;20.60;99.90;;;19.86;100.00;98944.44;10220739;28;96624;-84
2023/07/25 11:01:32;;;;;;;9.30;5.60;;;20.70;99.90;;;20.02;100.00;98904.88;10235664;28;96635;-84
2023/07/25 11:06:38;;;;;;;12.13;5.53;;;20.80;99.90;;;20.15;100.00;98898.19;10253791;28;96640;-85
2023/07/25 11:11:47;;;;;;;12.32;6.68;;;20.90;99.90;;;20.38;100.00;98911.25;10261953;28;97456;-85
2023/07/25 11:16:54;;;;;;;7.93;5.17;;;21.10;99.90;;;20.55;100.00;98919.19;10268783;28;96981;-85
2023/07/25 11:21:58;;;;;;;6.25;4.55;;;21.30;99.90;;;20.61;100.00;98885.75;10277601;28;96646;-85
2023/07/25 11:27:04;;;;;;;7.22;4.10;;;21.40;99.90;;;20.69;100.00;98854.72;10277806;28;96466;-85
2023/07/25 11:32:08;;;;;;;5.15;3.70;;;21.50;99.90;;;20.77;100.00;98843.44;10277433;28;96659;-84
2023/07/25 11:37:12;;;;;;;5.20;3.42;;;21.60;99.90;;;21.01;100.00;98839.13;10293409;28;96585;-85
2023/07/25 11:42:15;;;;;;;6.32;4.22;;;21.80;99.90;;;21.37;100.00;98829.19;10271660;28;97721;-88
2023/07/25 11:47:19;;;;;;;5.00;3.55;;;22.20;99.90;;;21.62;100.00;98811.28;10273795;28;96668;-84
2023/07/25 11:52:23;;;;;;;7.60;4.70;;;22.50;99.90;;;21.68;100.00;98812.09;10270365;28;96658;-86
2023/07/25 11:57:26;;;;;;;6.03;4.10;;;22.60;99.90;;;21.59;100.00;98796.44;10273067;28;96615;-85
2023/07/25 12:02:38;;;;;;;4.40;3.30;;;22.50;99.90;;;21.60;100.00;98784.56;10271035;28;98564;-86
2023/07/25 12:07:52;;;;;;;9.15;3.70;;;22.50;99.90;;;21.59;100.00;98801.84;10254890;28;99202;-86
2023/07/25 12:12:57;;;;;;;6.15;3.55;;;22.50;99.90;;;21.72;100.00;98830.22;10273396;28;99173;-87
2023/07/25 12:18:01;;;;;;;5.55;3.72;;;22.60;99.90;;;21.79;100.00;98836.13;10272931;28;97333;-86
2023/07/25 12:23:06;;;;;;;5.20;3.85;;;22.70;99.90;;;21.88;100.00;98839.06;10271943;28;96624;-86
2023/07/25 12:28:10;;;;;;;5.60;4.25;;;22.70;99.90;;;21.88;100.00;98817.44;10276220;28;96623;-86
2023/07/25 12:33:13;;;;;;;5.25;3.60;;;22.70;99.90;;;21.85;100.00;98826.13;10275984;28;98400;-86
2023/07/25 12:38:17;;;;;;;4.75;3.50;;;22.70;99.90;;;21.83;100.00;98814.75;10292066;28;96794;-86
2023/07/25 12:43:21;;;;;;;4.75;3.85;;;22.70;99.90;;;21.96;100.00;98807.97;10275735;28;97593;-86
2023/07/25 12:48:25;;;;;;;4.55;3.70;;;22.80;99.90;;;22.06;100.00;98783.56;10288183;28;96620;-87
2023/07/25 12:53:29;;;;;;;4.25;3.40;;;22.90;99.90;;;22.16;100.00;98781.66;10291425;28;96549;-87
2023/07/25 12:58:32;;;;;;;4.30;3.65;;;23.00;99.90;;;22.24;100.00;98755.09;10290903;28;96427;-87
2023/07/25 13:03:40;;;;;;;5.25;4.05;;;23.10;99.90;;;22.25;100.00;98762.97;10291027;28;97770;-87
2023/07/25 13:08:44;;;;;;;4.65;3.75;;;23.10;99.90;;;22.24;100.00;98711.81;10290059;28;100060;-87
2023/07/25 13:13:47;;;;;;;7.80;4.18;;;23.10;99.90;;;22.19;100.00;98639.63;10291003;28;96570;-87
2023/07/25 13:18:51;;;;;;;5.97;4.13;;;23.10;99.90;;;22.27;100.00;98689.63;10263204;28;96725;-87
2023/07/25 13:23:54;;;;;;;5.93;4.45;;;23.10;99.90;;;22.36;100.00;98769.09;10289844;28;96640;-87
2023/07/25 13:28:58;;;;;;;5.85;4.10;;;23.20;99.90;;;22.49;100.00;98756.84;10290515;28;96714;-88
2023/07/25 13:34:02;;;;;;;5.53;3.92;;;23.40;99.90;;;22.56;99.05;98774.41;10287292;28;97169;-87
2023/07/25 13:39:08;;;;;;;7.25;4.57;;;23.50;99.90;;;22.82;99.33;98785.06;10283174;28;98461;-87
2023/07/25 13:44:12;;;;;;;7.63;4.28;;;23.60;99.90;;;23.17;96.92;98801.06;10280151;28;96692;-88
2023/07/25 13:49:16;;;;;;;6.50;3.20;;;24.00;99.90;;;23.34;91.04;98791.69;10267248;28;96907;-85
2023/07/25 13:54:19;;;;;;;5.70;3.10;;;24.20;99.90;;;23.42;85.94;98804.63;10282004;28;96500;-88
2023/07/25 13:59:23;;;;;;;4.68;3.05;;;24.30;99.90;;;23.38;84.84;98795.44;10273287;28;96627;-87
2023/07/25 14:04:28;;;;;;;5.40;2.75;;;24.30;99.90;;;23.53;86.09;98792.59;10293100;28;98278;-87
2023/07/25 14:09:32;;;;;;;5.28;2.97;;;24.40;99.90;;;23.80;86.11;98797.47;10278976;28;96748;-87
2023/07/25 14:14:36;;;;;;;4.45;2.80;;;24.60;99.90;;;24.01;79.24;98779.88;10281337;28;96660;-87
2023/07/25 14:19:39;;;;;;;4.72;2.63;;;24.90;99.90;;;24.19;79.04;98766.63;10280312;28;96635;-88
2023/07/25 14:24:43;;;;;;;5.35;2.75;;;25.10;99.90;;;24.17;77.81;98747.09;10273607;28;96549;-87
2023/07/25 14:29:47;;;;;;;5.88;2.72;;;25.10;99.90;;;24.25;79.63;98733.69;10290363;28;98109;-85
2023/07/25 14:34:51;;;;;;;6.20;2.53;;;25.20;99.90;;;24.25;77.74;98698.41;10283656;28;98727;-88
2023/07/25 14:39:54;;;;;;;5.20;2.53;;;25.30;99.90;;;24.10;76.91;98674.19;10280818;28;98241;-87
2023/07/25 14:44:58;;;;;;;6.97;2.90;;;25.10;99.90;;;23.83;77.63;98649.63;10290729;28;97400;-86
2023/07/25 14:50:02;;;;;;;5.18;2.90;;;24.80;99.90;;;23.61;80.16;98561.47;10293684;28;96787;-86
2023/07/25 14:55:06;;;;;;;4.70;2.60;;;24.50;99.90;;;23.54;80.40;98599.00;10270073;28;98485;-86
2023/07/25 15:00:10;;;;;;;5.82;2.75;;;24.40;99.90;;;23.47;80.92;98595.84;10276077;28;98115;-86
2023/07/25 15:05:14;;;;;;;3.30;2.30;;;24.30;99.90;;;23.54;82.75;98620.69;10271182;28;98727;-85
2023/07/25 15:10:18;;;;;;;4.70;2.50;;;24.40;99.90;;;24.03;82.43;98584.22;10290821;28;97001;-86
2023/07/25 15:15:22;;;;;;;5.40;2.63;;;25.00;99.90;;;24.65;78.46;98578.59;10294327;28;96558;-87
2023/07/25 15:20:26;;;;;;;4.45;2.13;;;25.60;99.90;;;25.42;73.00;98576.00;10292787;28;96576;-86
2023/07/25 15:25:30;;;;;;;3.05;2.00;;;26.60;99.70;;;26.38;67.59;98572.97;10271096;28;98284;-86
2023/07/25 15:30:34;;;;;;;3.30;2.20;;;27.70;97.80;;;27.12;63.10;98609.81;10305292;28;96608;-86
2023/07/25 15:35:38;;;;;;;3.05;1.85;;;28.50;95.20;;;27.39;59.28;98609.53;10277986;28;98877;-85
2023/07/25 15:40:42;;;;;;;3.75;2.17;;;29.00;92.60;;;27.54;59.79;98637.53;10274801;28;96992;-87
2023/07/25 15:45:45;;;;;;;3.88;2.47;;;29.00;91.30;;;27.54;57.23;98642.97;10293702;28;97502;-85
2023/07/25 15:50:49;;;;;;;3.35;2.25;;;29.10;89.50;;;26.98;58.30;98664.38;10272063;28;97212;-85
2023/07/25 15:55:52;;;;;;;2.97;2.08;;;28.40;88.60;;;26.22;61.00;98664.34;10290780;28;97382;-85
2023/07/25 16:00:56;;;;;;;3.95;2.63;;;27.50;90.30;;;25.85;63.29;98671.69;10268413;28;97816;-85
2023/07/25 16:06:03;;;;;;;3.53;2.40;;;27.00;91.20;;;25.91;64.03;98680.56;10291858;28;96654;-87
2023/07/25 16:11:06;;;;;;;5.53;2.55;;;27.00;91.80;;;25.91;63.29;98675.13;10294043;28;98254;-93
2023/07/25 16:16:10;;;;;;;3.53;2.63;;;26.90;91.70;;;25.32;65.25;98683.06;10275404;28;96833;-90
2023/07/25 16:21:14;;;;;;;3.33;2.40;;;26.20;92.20;;;24.72;68.46;98679.53;10277755;28;96553;-87
2023/07/25 16:26:18;;;;;;;4.90;2.70;;;25.60;93.40;;;24.33;70.95;98690.69;10290155;28;96631;-91
2023/07/25 16:31:21;;;;;;;3.35;2.47;;;25.20;94.60;;;24.27;71.36;98690.75;10270964;28;96927;-94
2023/07/25 16:36:35;;;;;;;3.58;2.40;;;25.10;95.00;;;24.53;72.04;98685.00;10276901;28;96716;-93
2023/07/25 16:41:39;;;;;;;4.88;2.90;;;25.40;95.20;;;24.75;70.15;98687.88;10272151;28;96796;-94
2023/07/25 16:46:43;;;;;;;4.28;2.78;;;25.70;94.70;;;24.97;68.54;98692.66;10274235;28;97485;-88
2023/07/25 16:51:47;;;;;;;4.05;2.92;;;25.90;94.40;;;24.95;66.81;98703.03;10286135;28;96529;-87
2023/07/25 16:56:51;;;;;;;6.47;2.78;;;25.90;93.80;;;24.70;68.24;98709.69;10277372;28;96525;-87
2023/07/25 17:01:55;;;;;;;5.32;3.10;;;25.60;93.90;;;24.29;69.14;98713.00;10249491;28;97516;-88
2023/07/25 17:06:59;;;;;;;6.57;3.33;;;25.20;94.30;;;23.90;71.47;98723.31;10271747;28;97961;-88
2023/07/25 17:12:03;;;;;;;5.68;3.03;;;24.80;95.10;;;23.50;73.67;98733.50;10272503;28;96705;-87
2023/07/25 17:17:07;;;;;;;3.92;2.97;;;24.40;95.90;;;23.16;76.22;98741.75;10262935;28;96648;-87
2023/07/25 17:22:11;;;;;;;4.38;2.70;;;24.10;96.60;;;22.90;76.73;98739.22;10268193;28;97341;-87
2023/07/25 17:27:14;;;;;;;4.55;3.40;;;23.80;97.00;;;22.71;77.03;98754.53;10285942;28;96624;-87
2023/07/25 17:32:20;;;;;;;4.75;3.15;;;23.60;97.20;;;22.51;78.55;98758.19;10283726;28;96597;-87
2023/07/25 17:37:25;;;;;;;6.47;2.95;;;23.40;97.70;;;22.37;80.61;98759.88;10258176;28;96665;-85
2023/07/25 17:42:28;;;;;;;3.28;2.88;;;23.20;98.40;;;22.27;81.70;98751.84;10273867;28;96793;-87
2023/07/25 17:47:34;;;;;;;3.75;2.90;;;23.20;99.00;;;22.22;82.56;98751.88;10269608;28;98198;-87
2023/07/25 17:52:38;;;;;;;3.08;2.65;;;23.10;99.40;;;22.15;82.52;98742.16;10255371;28;96564;-88
2023/07/25 17:57:41;;;;;;;4.53;3.22;;;23.00;99.40;;;22.03;82.09;98752.47;10281441;28;98441;-88
2023/07/25 18:02:46;;;;;;;5.32;3.38;;;22.90;99.50;;;21.90;82.49;98750.38;10284256;28;96642;-87
2023/07/25 18:07:49;;;;;;;4.63;3.30;;;22.80;99.70;;;21.77;83.18;98740.13;10286662;28;96574;-88
2023/07/25 18:12:53;;;;;;;4.15;3.20;;;22.70;99.90;;;21.67;83.95;98721.28;10285817;28;98986;-88
2023/07/25 18:17:57;;;;;;;5.03;2.90;;;22.50;99.90;;;21.53;85.34;98713.75;10286847;28;96797;-88
2023/07/25 18:23:02;;;;;;;4.20;3.03;;;22.40;99.90;;;21.44;85.49;98739.72;10270651;28;96653;-88
2023/07/25 18:28:05;;;;;;;4.65;3.53;;;22.30;99.90;;;21.37;85.46;98741.91;10288941;28;98352;-87
2023/07/25 18:33:09;;;;;;;4.28;3.25;;;22.30;99.90;;;21.25;85.70;98744.06;10292233;28;98506;-87
2023/07/25 18:38:15;;;;;;;4.10;3.17;;;22.20;99.90;;;21.09;86.10;98746.75;10270996;28;97087;-87
2023/07/25 18:43:24;;;;;;;5.18;3.20;;;22.10;99.90;;;20.90;85.83;98751.09;10267044;28;97991;-88
2023/07/25 18:48:28;;;;;;;3.83;2.83;;;21.90;99.90;;;20.74;87.12;98752.16;10271725;28;98775;-87
2023/07/25 18:53:32;;;;;;;3.60;2.67;;;21.70;99.90;;;20.53;86.67;98765.66;10310645;28;96612;-87
2023/07/25 18:58:35;;;;;;;3.42;2.50;;;21.50;99.90;;;20.36;87.04;98778.53;10279114;28;99048;-87
2023/07/25 19:03:39;;;;;;;3.92;2.65;;;21.30;99.90;;;20.21;87.57;98794.66;10290921;28;96745;-88
2023/07/25 19:08:43;;;;;;;5.32;2.40;;;21.10;99.90;;;20.14;87.80;98804.88;10276921;28;96732;-87
2023/07/25 19:13:47;;;;;;;3.83;2.53;;;21.10;99.90;;;20.06;88.70;98787.34;10269447;28;97756;-87
2023/07/25 19:18:50;;;;;;;3.80;2.63;;;21.00;99.90;;;19.94;89.77;98760.59;10278057;28;97054;-87
2023/07/25 19:23:54;;;;;;;3.72;2.47;;;20.90;99.90;;;19.84;91.05;98751.66;10277073;28;97853;-87
2023/07/25 19:28:57;;;;;;;3.63;2.83;;;20.80;99.90;;;19.71;92.67;98755.66;10293441;28;96868;-87
2023/07/25 19:34:04;;;;;;;5.30;3.13;;;20.60;99.90;;;19.61;93.53;98763.66;10279429;28;97393;-87
2023/07/25 19:39:08;;;;;;;3.50;2.58;;;20.50;99.90;;;19.52;94.45;98764.16;10287844;28;96643;-87
2023/07/25 19:44:14;;;;;;;4.15;2.63;;;20.50;99.90;;;19.50;94.73;98785.16;10271047;28;99000;-86
2023/07/25 19:49:19;;;;;;;4.32;2.50;;;20.50;99.90;;;19.49;94.45;98785.38;10269960;28;98363;-87
2023/07/25 19:54:23;;;;;;;3.75;2.83;;;20.50;99.90;;;19.47;94.56;98768.69;10268514;28;98729;-87
2023/07/25 19:59:26;;;;;;;4.90;2.80;;;20.40;99.90;;;19.40;94.79;98758.16;10265090;28;97359;-87
2023/07/25 20:04:30;;;;;;;4.55;2.70;;;20.40;99.90;;;19.34;94.85;98769.97;10264358;28;98530;-85
2023/07/25 20:09:34;;;;;;;3.80;2.45;;;20.30;99.90;;;19.31;94.66;98780.44;10274386;28;96667;-86
2023/07/25 20:14:37;;;;;;;3.85;2.95;;;20.30;99.90;;;19.25;94.50;98766.94;10288991;28;96818;-89
2023/07/25 20:19:42;;;;;;;3.95;2.60;;;20.20;99.90;;;19.24;93.41;98778.78;10263126;28;98496;-89
2023/07/25 20:24:45;;;;;;;4.38;3.13;;;20.20;99.90;;;19.22;93.03;98770.16;10280491;28;97651;-87
2023/07/25 20:29:50;;;;;;;4.72;2.47;;;20.20;99.90;;;19.21;92.43;98776.59;10286598;28;99891;-88
2023/07/25 20:34:54;;;;;;;3.17;2.33;;;20.20;99.90;;;19.18;90.58;98776.31;10273511;28;96872;-87
2023/07/25 20:39:57;;;;;;;6.53;2.63;;;20.20;99.90;;;19.20;90.70;98788.47;10265435;28;96577;-87
2023/07/25 20:45:01;;;;;;;3.72;2.30;;;20.20;99.90;;;19.20;91.16;98785.75;10273967;28;96689;-87
2023/07/25 20:50:05;;;;;;;7.35;2.30;;;20.20;99.90;;;19.18;90.59;98777.09;10273781;28;97471;-87
2023/07/25 20:55:09;;;;;;;5.57;2.35;;;20.20;99.90;;;19.13;90.18;98781.66;10290204;28;96512;-88
2023/07/25 21:00:13;;;;;;;3.10;2.05;;;20.20;99.90;;;19.04;89.49;98786.72;10289371;28;97508;-87